createdAt,value
2023-01-06T00:01:35.515Z,100369.38
2023-01-06T00:04:03.464Z,100374.72
2023-01-06T00:06:31.466Z,100373.06
2023-01-06T00:09:02.680Z,100380.66
2023-01-06T00:11:30.804Z,100380.25
2023-01-06T00:13:57.913Z,100382.22
2023-01-06T00:16:25.259Z,100387.13
2023-01-06T00:19:00.360Z,100391.63
2023-01-06T00:21:28.586Z,100384.56
2023-01-06T00:23:56.206Z,100396.09
2023-01-06T00:26:23.733Z,100403.34
2023-01-06T00:28:56.834Z,100410.69
2023-01-06T00:31:24.236Z,100407.31
2023-01-06T00:33:51.930Z,100416.78
2023-01-06T00:36:18.984Z,100428.19
2023-01-06T00:38:45.998Z,100435.94
2023-01-06T00:41:33.202Z,100429.56
2023-01-06T00:44:01.993Z,100441.81
2023-01-06T00:46:31.726Z,100446.16
2023-01-06T00:49:04.960Z,100461.16
2023-01-06T00:51:35.704Z,100472.97
2023-01-06T00:54:02.827Z,100463.50
2023-01-06T00:56:30.020Z,100460.78
2023-01-06T00:58:57.116Z,100471.50
2023-01-06T01:01:24.307Z,100471.09
2023-01-06T01:03:51.370Z,100463.06
2023-01-06T01:06:18.488Z,100467.94
2023-01-06T01:08:45.677Z,100469.03
2023-01-06T01:11:36.379Z,100477.22
2023-01-06T01:14:03.675Z,100469.28
2023-01-06T01:16:31.593Z,100488.16
2023-01-06T01:18:59.503Z,100499.50
2023-01-06T01:21:26.546Z,100503.50
2023-01-06T01:23:53.539Z,100500.09
2023-01-06T01:26:20.667Z,100501.69
2023-01-06T01:28:47.776Z,100509.56
2023-01-06T01:31:16.256Z,100515.88
2023-01-06T01:33:43.792Z,100520.38
2023-01-06T01:36:15.131Z,100522.97
2023-01-06T01:38:42.615Z,100537.69
2023-01-06T01:41:17.951Z,100539.41
2023-01-06T01:43:51.161Z,100537.34
2023-01-06T01:46:28.537Z,100544.38
2023-01-06T01:49:01.142Z,100545.09
2023-01-06T01:51:39.478Z,100563.44
2023-01-06T01:54:14.158Z,100568.66
2023-01-06T01:56:46.242Z,100556.91
2023-01-06T01:59:18.506Z,100565.84
2023-01-06T02:01:47.244Z,100570.47
2023-01-06T02:04:17.392Z,100574.22
2023-01-06T02:06:46.280Z,100589.13
2023-01-06T02:09:25.858Z,100585.78
2023-01-06T02:11:52.978Z,100599.50
2023-01-06T02:14:24.237Z,100610.94
2023-01-06T02:17:20.966Z,100609.03
2023-01-06T02:20:21.411Z,100608.16
2023-01-06T02:23:15.129Z,100613.91
2023-01-06T02:26:28.077Z,100623.84
2023-01-06T02:29:24.926Z,100632.59
2023-01-06T02:32:23.975Z,100639.44
2023-01-06T02:35:30.408Z,100645.69
2023-01-06T02:38:28.555Z,100645.13
2023-01-06T02:41:38.231Z,100646.56
2023-01-06T02:44:27.769Z,100651.88
2023-01-06T02:46:54.657Z,100665.06
2023-01-06T02:49:31.683Z,100662.34
2023-01-06T02:52:09.969Z,100665.19
2023-01-06T02:55:06.198Z,100673.16
2023-01-06T02:57:57.356Z,100689.94
2023-01-06T03:00:43.032Z,100683.41
2023-01-06T03:03:21.010Z,100686.91
2023-01-06T03:05:55.560Z,100680.59
2023-01-06T03:08:28.481Z,100676.84
2023-01-06T03:10:57.618Z,100690.16
2023-01-06T03:13:47.145Z,100688.06
2023-01-06T03:16:16.131Z,100689.44
2023-01-06T03:18:45.416Z,100694.66
2023-01-06T03:21:19.214Z,100700.63
2023-01-06T03:23:46.964Z,100699.81
2023-01-06T03:26:14.738Z,100699.31
2023-01-06T03:28:41.870Z,100705.25
2023-01-06T03:31:45.130Z,100703.66
2023-01-06T03:34:41.683Z,100705.47
2023-01-06T03:37:23.894Z,100709.47
2023-01-06T03:40:26.083Z,100718.84
2023-01-06T03:43:16.377Z,100718.03
2023-01-06T03:46:17.064Z,100720.25
2023-01-06T03:49:19.912Z,100723.66
2023-01-06T03:51:54.841Z,100723.28
2023-01-06T03:54:40.777Z,100729.81
2023-01-06T03:57:16.968Z,100725.78
2023-01-06T03:59:58.907Z,100732.00
2023-01-06T04:02:27.974Z,100730.59
2023-01-06T04:05:14.037Z,100743.47
2023-01-06T04:07:43.362Z,100734.63
2023-01-06T04:10:12.456Z,100747.31
2023-01-06T04:12:40.268Z,100743.38
2023-01-06T04:15:11.101Z,100739.75
2023-01-06T04:17:42.889Z,100749.72
2023-01-06T04:20:15.137Z,100750.63
2023-01-06T04:22:42.683Z,100739.94
2023-01-06T04:25:10.503Z,100751.44
2023-01-06T04:27:37.545Z,100757.34
2023-01-06T04:30:07.064Z,100753.56
2023-01-06T04:32:34.251Z,100757.25
2023-01-06T04:35:01.353Z,100762.09
2023-01-06T04:37:28.369Z,100763.50
2023-01-06T04:39:55.457Z,100762.59
2023-01-06T04:42:22.478Z,100763.22
2023-01-06T04:44:49.860Z,100761.00
2023-01-06T04:47:16.998Z,100774.88
2023-01-06T04:49:45.443Z,100761.59
2023-01-06T04:52:12.457Z,100768.53
2023-01-06T04:54:39.482Z,100766.91
2023-01-06T04:57:06.520Z,100768.25
2023-01-06T04:59:33.556Z,100774.28
2023-01-06T05:02:00.646Z,100759.31
2023-01-06T05:04:30.175Z,100769.53
2023-01-06T05:07:01.141Z,100766.53
2023-01-06T05:09:28.200Z,100770.94
2023-01-06T05:11:55.231Z,100755.56
2023-01-06T05:14:22.299Z,100755.66
2023-01-06T05:16:49.272Z,100765.72
2023-01-06T05:19:16.238Z,100763.81
2023-01-06T05:21:43.242Z,100761.69
2023-01-06T05:24:10.495Z,100773.16
2023-01-06T05:26:37.507Z,100770.94
2023-01-06T05:29:04.473Z,100770.94
2023-01-06T05:31:31.527Z,100799.06
2023-01-06T05:33:58.558Z,100791.34
2023-01-06T05:36:25.638Z,100779.97
2023-01-06T05:38:54.271Z,100788.72
2023-01-06T05:41:21.573Z,100792.84
2023-01-06T05:43:48.712Z,100794.06
2023-01-06T05:46:15.909Z,100810.34
2023-01-06T05:48:42.932Z,100811.72
2023-01-06T05:51:15.226Z,100826.03
2023-01-06T05:53:44.822Z,100814.88
2023-01-06T05:56:16.729Z,100822.00
2023-01-06T05:58:52.721Z,100827.50
2023-01-06T06:01:28.917Z,100825.97
2023-01-06T06:03:56.176Z,100839.03
2023-01-06T06:06:25.873Z,100835.72
2023-01-06T06:08:52.979Z,100836.22
2023-01-06T06:11:22.271Z,100846.88
2023-01-06T06:13:56.101Z,100848.28
2023-01-06T06:16:26.446Z,100845.06
2023-01-06T06:18:57.319Z,100860.78
2023-01-06T06:21:28.983Z,100845.50
2023-01-06T06:23:58.293Z,100846.56
2023-01-06T06:26:26.526Z,100842.84
2023-01-06T06:28:56.552Z,100853.13
2023-01-06T06:31:29.537Z,100853.84
2023-01-06T06:33:59.999Z,100855.19
2023-01-06T06:36:27.469Z,100857.09
2023-01-06T06:38:55.942Z,100864.47
2023-01-06T06:41:25.597Z,100874.72
2023-01-06T06:43:53.239Z,100868.16
2023-01-06T06:46:21.376Z,100880.75
2023-01-06T06:48:50.195Z,100886.47
2023-01-06T06:51:21.003Z,100884.38
2023-01-06T06:53:51.170Z,100893.69
2023-01-06T06:56:21.467Z,100894.13
2023-01-06T06:58:48.926Z,100899.34
2023-01-06T07:01:19.003Z,100904.31
2023-01-06T07:03:47.580Z,100907.13
2023-01-06T07:06:19.975Z,100904.31
2023-01-06T07:08:48.360Z,100908.78
2023-01-06T07:11:15.708Z,100915.97
2023-01-06T07:13:43.088Z,100915.13
2023-01-06T07:16:10.980Z,100920.03
2023-01-06T07:18:38.513Z,100924.13
2023-01-06T07:21:06.417Z,100920.50
2023-01-06T07:23:34.285Z,100920.03
2023-01-06T07:26:02.352Z,100917.81
2023-01-06T07:28:31.503Z,100917.66
2023-01-06T07:30:59.072Z,100916.09
2023-01-06T07:33:26.682Z,100907.13
2023-01-06T07:35:55.978Z,100898.75
2023-01-06T07:38:24.318Z,100903.72
2023-01-06T07:40:51.916Z,100907.25
2023-01-06T07:43:19.090Z,100903.25
2023-01-06T07:45:49.361Z,100890.75
2023-01-06T07:48:17.091Z,100902.84
2023-01-06T07:50:44.463Z,100906.28
2023-01-06T07:53:12.473Z,100906.50
2023-01-06T07:55:39.528Z,100899.34
2023-01-06T07:58:08.801Z,100913.22
2023-01-06T08:00:36.573Z,100917.97
2023-01-06T08:03:07.009Z,100919.06
2023-01-06T08:05:42.030Z,100924.06
2023-01-06T08:08:10.958Z,100930.00
2023-01-06T08:10:42.987Z,100929.41
2023-01-06T08:13:11.227Z,100923.69
2023-01-06T08:15:40.212Z,100929.25
2023-01-06T08:18:08.213Z,100936.66
2023-01-06T08:20:35.433Z,100939.75
2023-01-06T08:23:02.891Z,100939.06
2023-01-06T08:25:29.974Z,100936.13
2023-01-06T08:28:00.144Z,100944.44
2023-01-06T08:30:27.879Z,100940.25
2023-01-06T08:32:59.216Z,100940.16
2023-01-06T08:35:26.745Z,100941.19
2023-01-06T08:37:53.871Z,100936.66
2023-01-06T08:40:21.123Z,100947.44
2023-01-06T08:42:48.360Z,100938.25
2023-01-06T08:45:15.532Z,100947.22
2023-01-06T08:47:42.647Z,100950.53
2023-01-06T08:50:09.751Z,100954.47
2023-01-06T08:52:37.557Z,100947.66
2023-01-06T08:55:05.164Z,100940.56
2023-01-06T08:57:32.237Z,100939.53
2023-01-06T08:59:59.407Z,100943.56
2023-01-06T09:02:27.421Z,100952.59
2023-01-06T09:04:54.700Z,100956.13
2023-01-06T09:07:21.713Z,100935.06
2023-01-06T09:09:48.841Z,100953.00
2023-01-06T09:12:15.927Z,100948.72
2023-01-06T09:14:42.949Z,100951.56
2023-01-06T09:17:09.995Z,100948.94
2023-01-06T09:19:36.974Z,100955.69
2023-01-06T09:22:04.483Z,100946.25
2023-01-06T09:24:31.531Z,100947.84
2023-01-06T09:26:58.569Z,100946.50
2023-01-06T09:29:25.593Z,100953.78
2023-01-06T09:31:52.613Z,100950.03
2023-01-06T09:34:19.648Z,100953.34
2023-01-06T09:36:46.748Z,100947.84
2023-01-06T09:39:13.758Z,100945.13
2023-01-06T09:42:25.649Z,100945.31
2023-01-06T09:45:06.448Z,100935.66
2023-01-06T09:47:42.509Z,100947.44
2023-01-06T09:50:45.794Z,100950.28
2023-01-06T09:54:00.260Z,100948.38
2023-01-06T09:56:27.610Z,100952.41
2023-01-06T09:59:09.119Z,100943.63
2023-01-06T10:01:46.078Z,100942.69
2023-01-06T10:04:30.981Z,100935.97
2023-01-06T10:07:19.937Z,100936.59
2023-01-06T10:10:02.445Z,100938.31
2023-01-06T10:13:03.835Z,100934.81
2023-01-06T10:15:30.776Z,100929.00
2023-01-06T10:18:21.845Z,100924.97
2023-01-06T10:21:27.936Z,100915.91
2023-01-06T10:24:01.942Z,100927.19
2023-01-06T10:26:44.522Z,100913.28
2023-01-06T10:29:20.969Z,100915.69
2023-01-06T10:31:51.548Z,100915.81
2023-01-06T10:34:24.619Z,100911.16
2023-01-06T10:37:24.172Z,100909.94
2023-01-06T10:40:14.324Z,100912.28
2023-01-06T10:42:56.555Z,100913.47
2023-01-06T10:45:46.400Z,100902.28
2023-01-06T10:48:17.940Z,100891.88
2023-01-06T10:50:45.121Z,100892.34
2023-01-06T10:53:15.014Z,100887.69
2023-01-06T10:55:55.066Z,100878.50
2023-01-06T10:58:42.735Z,100894.56
2023-01-06T11:01:23.673Z,100876.84
2023-01-06T11:04:09.487Z,100885.50
2023-01-06T11:06:43.742Z,100898.84
2023-01-06T11:09:33.463Z,100890.28
2023-01-06T11:12:10.687Z,100890.16
2023-01-06T11:14:39.144Z,100893.84
2023-01-06T11:17:16.083Z,100892.84
2023-01-06T11:19:46.161Z,100879.97
2023-01-06T11:22:39.764Z,100864.28
2023-01-06T11:25:21.866Z,100873.03
2023-01-06T11:28:24.458Z,100861.22
2023-01-06T11:31:05.774Z,100860.56
2023-01-06T11:33:36.691Z,100855.53
2023-01-06T11:36:13.108Z,100859.19
2023-01-06T11:38:49.867Z,100848.56
2023-01-06T11:41:37.883Z,100843.66
2023-01-06T11:44:36.772Z,100846.56
2023-01-06T11:47:18.129Z,100836.72
2023-01-06T11:49:55.959Z,100837.19
2023-01-06T11:52:32.981Z,100839.09
2023-01-06T11:55:07.828Z,100844.13
2023-01-06T11:58:05.481Z,100829.47
2023-01-06T12:01:00.025Z,100831.56
2023-01-06T12:03:41.536Z,100838.13
2023-01-06T12:06:37.977Z,100829.25
2023-01-06T12:09:33.753Z,100832.25
2023-01-06T12:12:07.737Z,100824.94
2023-01-06T12:14:39.561Z,100819.41
2023-01-06T12:17:18.134Z,100823.31
2023-01-06T12:20:14.820Z,100827.56
2023-01-06T12:23:12.445Z,100828.88
2023-01-06T12:25:46.727Z,100822.63
2023-01-06T12:28:19.319Z,100821.22
2023-01-06T12:31:22.682Z,100824.84
2023-01-06T12:34:24.717Z,100819.00
2023-01-06T12:37:39.868Z,100811.28
2023-01-06T12:40:30.467Z,100814.19
2023-01-06T12:43:16.786Z,100807.81
2023-01-06T12:45:59.519Z,100813.03
2023-01-06T12:49:03.044Z,100797.09
2023-01-06T12:51:48.411Z,100800.34
2023-01-06T12:54:32.224Z,100814.22
2023-01-06T12:57:23.737Z,100813.13
2023-01-06T13:00:24.049Z,100817.09
2023-01-06T13:03:35.832Z,100819.97
2023-01-06T13:06:30.557Z,100822.09
2023-01-06T13:09:18.550Z,100816.88
2023-01-06T13:12:17.606Z,100810.13
2023-01-06T13:15:03.805Z,100803.22
2023-01-06T13:17:55.947Z,100804.22
2023-01-06T13:20:49.808Z,100801.59
2023-01-06T13:23:54.401Z,100793.47
2023-01-06T13:27:14.530Z,100793.56
2023-01-06T13:30:15.576Z,100780.56
2023-01-06T13:33:17.113Z,100781.06
2023-01-06T13:36:17.490Z,100772.94
2023-01-06T13:39:12.653Z,100751.63
2023-01-06T13:41:43.702Z,100773.84
2023-01-06T13:44:20.594Z,100780.03
2023-01-06T13:46:49.841Z,100768.94
2023-01-06T13:49:17.039Z,100761.81
2023-01-06T13:51:44.626Z,100753.75
2023-01-06T13:55:05.404Z,100748.78
2023-01-06T13:57:40.283Z,100751.41
2023-01-06T14:00:07.182Z,100751.09
2023-01-06T14:02:34.243Z,100748.88
2023-01-06T14:05:22.494Z,100746.25
2023-01-06T14:08:17.740Z,100728.66
2023-01-06T14:10:46.742Z,100727.66
2023-01-06T14:13:26.105Z,100733.97
2023-01-06T14:16:14.038Z,100723.50
2023-01-06T14:19:04.491Z,100737.69
2023-01-06T14:21:31.847Z,100726.44
2023-01-06T14:24:06.902Z,100728.47
2023-01-06T14:27:01.341Z,100728.28
2023-01-06T14:29:40.613Z,100737.22
2023-01-06T14:32:11.734Z,100741.84
2023-01-06T14:34:44.140Z,100747.69
2023-01-06T14:37:17.144Z,100752.25
2023-01-06T14:39:50.310Z,100759.59
2023-01-06T14:42:38.864Z,100764.00
2023-01-06T14:45:25.051Z,100766.53
2023-01-06T14:47:56.561Z,100760.16
2023-01-06T14:50:45.519Z,100762.41
2023-01-06T14:53:35.923Z,100769.34
2023-01-06T14:56:04.934Z,100758.78
2023-01-06T14:58:36.901Z,100761.38
2023-01-06T15:01:06.551Z,100761.69
2023-01-06T15:03:34.921Z,100750.22
2023-01-06T15:06:21.175Z,100740.19
2023-01-06T15:08:48.850Z,100736.88
2023-01-06T15:11:33.528Z,100740.50
2023-01-06T15:14:00.555Z,100729.63
2023-01-06T15:16:41.008Z,100719.88
2023-01-06T15:19:15.832Z,100705.00
2023-01-06T15:21:47.486Z,100709.03
2023-01-06T15:24:23.501Z,100695.53
2023-01-06T15:26:57.075Z,100709.91
2023-01-06T15:29:26.739Z,100698.56
2023-01-06T15:31:55.160Z,100690.03
2023-01-06T15:34:34.967Z,100689.03
2023-01-06T15:37:04.737Z,100687.69
2023-01-06T15:39:33.941Z,100688.31
2023-01-06T15:42:02.452Z,100684.09
2023-01-06T15:44:32.317Z,100676.34
2023-01-06T15:47:11.513Z,100678.06
2023-01-06T15:49:49.077Z,100675.38
2023-01-06T15:52:38.747Z,100680.66
2023-01-06T15:55:18.170Z,100678.66
2023-01-06T15:57:55.940Z,100683.72
2023-01-06T16:00:27.252Z,100682.28
2023-01-06T16:02:54.473Z,100681.59
2023-01-06T16:05:36.374Z,100682.88
2023-01-06T16:08:07.008Z,100685.41
2023-01-06T16:10:38.846Z,100673.94
2023-01-06T16:13:23.250Z,100679.06
2023-01-06T16:15:55.516Z,100669.31
2023-01-06T16:18:35.326Z,100667.88
2023-01-06T16:21:24.905Z,100668.50
2023-01-06T16:23:58.642Z,100653.53
2023-01-06T16:26:32.833Z,100658.56
2023-01-06T16:29:02.916Z,100646.91
2023-01-06T16:31:36.325Z,100649.31
2023-01-06T16:34:24.305Z,100643.28
2023-01-06T16:36:56.451Z,100631.81
2023-01-06T16:39:24.556Z,100630.72
2023-01-06T16:42:00.757Z,100631.91
2023-01-06T16:44:32.301Z,100623.06
2023-01-06T16:47:00.669Z,100620.97
2023-01-06T16:49:30.270Z,100614.53
2023-01-06T16:51:57.411Z,100620.56
2023-01-06T16:54:24.434Z,100615.63
2023-01-06T16:56:52.454Z,100618.06
2023-01-06T16:59:22.250Z,100619.56
2023-01-06T17:01:49.524Z,100619.03
2023-01-06T17:04:16.729Z,100619.25
2023-01-06T17:06:45.834Z,100610.50
2023-01-06T17:09:23.727Z,100597.94
2023-01-06T17:11:52.971Z,100599.66
2023-01-06T17:14:22.748Z,100575.94
2023-01-06T17:16:53.446Z,100580.78
2023-01-06T17:19:28.298Z,100587.03
2023-01-06T17:22:26.355Z,100587.44
2023-01-06T17:24:54.321Z,100570.69
2023-01-06T17:27:30.017Z,100575.81
2023-01-06T17:30:01.862Z,100567.19
2023-01-06T17:32:35.107Z,100572.78
2023-01-06T17:35:23.844Z,100561.03
2023-01-06T17:37:50.853Z,100562.94
2023-01-06T17:40:22.041Z,100566.00
2023-01-06T17:43:00.919Z,100565.94
2023-01-06T17:45:28.511Z,100569.03
2023-01-06T17:47:56.793Z,100555.59
2023-01-06T17:50:33.813Z,100559.00
2023-01-06T17:53:35.163Z,100554.78
2023-01-06T17:56:09.001Z,100545.94
2023-01-06T17:58:44.084Z,100556.06
2023-01-06T18:01:30.071Z,100546.13
2023-01-06T18:04:00.068Z,100544.75
2023-01-06T18:06:37.806Z,100531.25
2023-01-06T18:09:09.872Z,100526.09
2023-01-06T18:11:50.819Z,100523.09
2023-01-06T18:14:25.200Z,100536.19
2023-01-06T18:16:56.805Z,100524.13
2023-01-06T18:19:32.776Z,100519.63
2023-01-06T18:22:02.407Z,100514.75
2023-01-06T18:24:39.161Z,100509.53
2023-01-06T18:27:34.618Z,100520.28
2023-01-06T18:30:15.188Z,100516.78
2023-01-06T18:32:44.076Z,100525.81
2023-01-06T18:35:28.675Z,100506.97
2023-01-06T18:38:02.498Z,100500.22
2023-01-06T18:40:31.575Z,100485.28
2023-01-06T18:43:00.397Z,100488.28
2023-01-06T18:45:36.244Z,100486.38
2023-01-06T18:48:25.086Z,100474.13
2023-01-06T18:50:53.880Z,100479.84
2023-01-06T18:53:30.446Z,100465.59
2023-01-06T18:56:03.922Z,100481.16
2023-01-06T18:58:46.391Z,100471.22
2023-01-06T19:01:37.113Z,100461.44
2023-01-06T19:04:04.181Z,100474.38
2023-01-06T19:07:12.155Z,100465.84
2023-01-06T19:09:46.336Z,100472.06
2023-01-06T19:12:33.545Z,100471.50
2023-01-06T19:15:24.430Z,100463.59
2023-01-06T19:17:52.173Z,100453.53
2023-01-06T19:20:29.195Z,100447.63
2023-01-06T19:22:57.171Z,100438.31
2023-01-06T19:25:40.716Z,100452.84
2023-01-06T19:28:31.301Z,100441.09
2023-01-06T19:31:00.519Z,100441.41
2023-01-06T19:34:03.165Z,100444.81
2023-01-06T19:36:48.214Z,100436.38
2023-01-06T19:39:28.565Z,100425.84
2023-01-06T19:42:16.717Z,100430.03
2023-01-06T19:44:44.389Z,100428.38
2023-01-06T19:47:18.199Z,100439.19
2023-01-06T19:49:52.726Z,100430.84
2023-01-06T19:52:43.006Z,100431.56
2023-01-06T19:55:22.548Z,100433.75
2023-01-06T19:58:04.015Z,100421.63
2023-01-06T20:00:38.213Z,100415.94
2023-01-06T20:03:32.506Z,100419.44
2023-01-06T20:05:59.870Z,100423.88
2023-01-06T20:08:27.072Z,100421.94
2023-01-06T20:10:55.134Z,100420.84
2023-01-06T20:13:22.244Z,100414.09
2023-01-06T20:15:49.313Z,100417.84
2023-01-06T20:18:16.355Z,100415.13
2023-01-06T20:20:43.378Z,100415.13
2023-01-06T20:23:11.295Z,100422.97
2023-01-06T20:25:38.309Z,100433.09
2023-01-06T20:28:05.581Z,100425.66
2023-01-06T20:30:32.596Z,100415.22
2023-01-06T20:32:59.591Z,100414.63
2023-01-06T20:35:26.651Z,100420.94
2023-01-06T20:37:53.699Z,100428.25
2023-01-06T20:40:21.327Z,100423.03
2023-01-06T20:42:48.431Z,100428.94
2023-01-06T20:45:15.516Z,100426.25
2023-01-06T20:47:44.083Z,100434.19
2023-01-06T20:50:13.862Z,100434.47
2023-01-06T20:52:47.346Z,100434.28
2023-01-06T20:55:16.650Z,100437.09
2023-01-06T20:57:43.761Z,100437.50
2023-01-06T21:00:12.988Z,100424.66
2023-01-06T21:02:40.158Z,100424.53
2023-01-06T21:05:08.032Z,100444.44
2023-01-06T21:07:35.221Z,100447.84
2023-01-06T21:10:04.202Z,100443.81
2023-01-06T21:12:31.621Z,100439.41
2023-01-06T21:14:58.591Z,100442.50
2023-01-06T21:17:26.077Z,100436.47
2023-01-06T21:19:53.122Z,100437.09
2023-01-06T21:22:20.231Z,100440.31
2023-01-06T21:24:47.211Z,100436.38
2023-01-06T21:27:14.345Z,100429.38
2023-01-06T21:29:41.663Z,100435.50
2023-01-06T21:32:09.262Z,100427.66
2023-01-06T21:34:36.299Z,100437.28
2023-01-06T21:37:03.776Z,100445.81
2023-01-06T21:39:30.995Z,100429.44
2023-01-06T21:42:16.485Z,100437.75
2023-01-06T21:44:43.517Z,100438.88
2023-01-06T21:47:11.466Z,100434.66
2023-01-06T21:49:42.017Z,100434.66
2023-01-06T21:52:09.722Z,100436.97
2023-01-06T21:54:36.807Z,100442.00
2023-01-06T21:57:04.054Z,100427.56
2023-01-06T21:59:31.709Z,100434.50
2023-01-06T22:01:58.940Z,100432.06
2023-01-06T22:04:26.091Z,100444.00
2023-01-06T22:06:56.491Z,100440.09
2023-01-06T22:09:24.359Z,100446.03
2023-01-06T22:11:52.076Z,100456.16
2023-01-06T22:14:19.534Z,100456.34
2023-01-06T22:16:46.836Z,100451.22
2023-01-06T22:19:15.702Z,100458.38
2023-01-06T22:21:44.212Z,100457.44
2023-01-06T22:24:13.700Z,100454.63
2023-01-06T22:26:40.725Z,100462.28
2023-01-06T22:29:08.332Z,100467.50
2023-01-06T22:31:36.476Z,100461.94
2023-01-06T22:34:03.942Z,100463.06
2023-01-06T22:36:30.941Z,100460.16
2023-01-06T22:38:57.977Z,100468.38
2023-01-06T22:41:25.013Z,100467.06
2023-01-06T22:43:52.052Z,100468.22
2023-01-06T22:46:19.194Z,100466.19
2023-01-06T22:48:46.470Z,100462.16
2023-01-06T22:51:13.565Z,100460.16
2023-01-06T22:53:40.594Z,100460.25
2023-01-06T22:56:11.496Z,100450.34
2023-01-06T22:58:40.945Z,100443.88
2023-01-06T23:01:08.557Z,100460.25
2023-01-06T23:03:36.750Z,100461.84
2023-01-06T23:06:12.137Z,100462.56
2023-01-06T23:08:50.966Z,100470.00
2023-01-06T23:11:22.751Z,100467.69
2023-01-06T23:13:55.521Z,100474.69
2023-01-06T23:16:23.383Z,100475.72
2023-01-06T23:18:50.605Z,100473.81
2023-01-06T23:21:22.043Z,100476.09
2023-01-06T23:23:50.348Z,100469.78
2023-01-06T23:26:28.117Z,100492.09
2023-01-06T23:28:57.029Z,100494.41
2023-01-06T23:31:35.425Z,100505.41
2023-01-06T23:34:17.615Z,100498.28
2023-01-06T23:36:45.765Z,100502.41
2023-01-06T23:39:16.915Z,100503.09
2023-01-06T23:41:44.103Z,100509.16
2023-01-06T23:44:16.681Z,100506.31
2023-01-06T23:46:44.994Z,100516.56
2023-01-06T23:49:15.767Z,100519.47
2023-01-06T23:51:43.823Z,100511.03
2023-01-06T23:54:12.212Z,100503.22
2023-01-06T23:56:39.629Z,100505.03
2023-01-06T23:59:10.104Z,100510.88
